Архив погоды в Дербенте

Метеограмма Дербент
Воскресенье, 25 Февраля
Время местн. Темп Ветер Видим Явления Облачность нижн/средн/верх Атм. давл. Влжн Точка росы ВНГО R Сост. почвы Tg s
Напр Скр Прв ур.ст ур.м изм
12:00 +7.3° В,Ю-В 2 - 20 км - преимущественно облачно 759 758 -1.2 78% +3.7° 1 км - - - -
09:00 +6.7° Ю-В 2 - 20 км - облачно 761 759 +0.2 80% +3.5° 1 км - - - -
06:00 +4.9° штиль 0 - 10 км - облачно 760 759 -0.3 89% +3.2° 1 км - Влажная (без луж) - -
03:00 +5.4° штиль 0 - 10 км - облачно 761 759 -0.5 86% +3.3° 1 км - - - -
00:00 +5.9° С 1 - 10 км - облачно 761 760 -0.8 81% +2.9° 1 км - - - -
Суббота, 24 Февраля
Время местн. Темп Ветер Видим Явления Облачность нижн/средн/верх Атм. давл. Влжн Точка росы ВНГО R Сост. почвы Tg s
Напр Скр Прв ур.ст ур.м изм
21:00 +6.4° С-З 2 - 10 км - облачно 762 760 +0.5 77% +2.6° 1 км - - - -
18:00 +6.3° З,С-З 3 - 10 км - облачно 762 760 +0.3 76% +2.3° 1 км 0 - - -
15:00 +6.9° С-З 3 - 20 км - облачно 761 760 -0.5 73% +2.5° 1 км - - - -
12:00 +6.1° С,С-З 4 - 20 км - облачно 762 760 +0.4 76% +2.2° 1 км - - - -
09:00 +6.1° С-З 4 - 20 км - облачно 761 760 +1.3 85% +3.8° 1 км - - - -
06:00 +6.2° З,С-З 2 - 10 км - облачно 760 759 -0.5 87% +4.2° 1 км - Влажная (без луж) - -
03:00 +5.7° Ю-В 1 - 10 км - облачно 761 759 -1.6 88% +3.9° 1 км - - - -
00:00 +6.1° Ю,Ю-В 2 - 10 км - облачно 762 761 -1.4 83% +3.4° 1 км - - - -
Пятница, 23 Февраля
Время местн. Темп Ветер Видим Явления Облачность нижн/средн/верх Атм. давл. Влжн Точка росы ВНГО R Сост. почвы Tg s
Напр Скр Прв ур.ст ур.м изм
21:00 +6.2° Ю,Ю-В 2 - 10 км - облачно 764 762 -0.3 77% +2.4° 1 км - - - -
18:00 +5.4° Ю 1 - 10 км - преимущественно облачно 764 762 0 83% +2.8° 1 км - - - -
15:00 +5.8° Ю-В 3 - 20 км - облачно 764 762 -1.2 86% +3.6° 1 км - - - -
12:00 +6.1° Ю-В 2 - 20 км - преимущественно облачно 765 763 -0.8 88% +4.2° 1 км - - - -
09:00 +5.2° штиль 0 - 20 км - облачно 766 764 +0.5 91% +3.8° 1 км - - - -
06:00 +4.2° штиль 0 - 10 км - облачно 765 764 -0.2 92% +3° 1 км - Влажная (без луж) - -
03:00 +5° З,С-З 1 - 10 км - облачно 766 764 -0.2 91% +3.7° 1 км - - - -
00:00 +5.7° штиль 0 - 10 км - облачно 766 764 0 90% +4.2° 1 км - - - -
Четверг, 22 Февраля
Время местн. Темп Ветер Видим Явления Облачность нижн/средн/верх Атм. давл. Влжн Точка росы ВНГО R Сост. почвы Tg s
Напр Скр Прв ур.ст ур.м изм
21:00 +4.8° штиль 0 - 10 км - облачно 766 764 +0.7 89% +3.2° 1 км - - - -
18:00 +5.4° С 1 - 10 км - облачно с прояснениями 765 763 +0.4 82% +2.6° 1 км - - - -
15:00 +6.3° штиль 0 - 20 км - облачно с прояснениями 765 763 -0.6 78% +2.7° 1 км - - - -
12:00 +6.1° В,Ю-В 1 - 20 км - облачно с прояснениями 765 764 -1 79% +2.8° 1 км - - - -
09:00 +4.7° штиль 0 - 20 км - облачно с прояснениями 766 764 -0.2 86% +2.6° 1 км - - - -